Time;durP1;ratioP1;P1;durP2;ratioP2;P2;SDS_P1;SDS_P2;PMS_P1;PMS_P2;Temp;Humidity;BMP_temperature;BMP_pressure;BME280_temperature;BME280_humidity;BME280_pressure;Samples;Min_cycle;Max_cycle;Signal;HPM_P1;HPM_P2
2022/04/29 00:01:30;;;;;;;5.25;3.10;;;9.80;52.80;;;;;;5095554;28;20053;-60
2022/04/29 00:03:56;;;;;;;4.65;2.92;;;9.70;53.50;;;;;;5096328;28;20087;-60
2022/04/29 00:06:22;;;;;;;9.10;3.00;;;9.80;53.20;;;;;;5092453;28;20032;-60
2022/04/29 00:08:47;;;;;;;6.75;2.90;;;9.70;53.20;;;;;;5097866;28;20507;-59
2022/04/29 00:11:13;;;;;;;3.30;2.53;;;9.70;53.10;;;;;;5101757;28;20035;-59
2022/04/29 00:13:39;;;;;;;5.50;3.33;;;9.70;53.10;;;;;;5099008;28;20085;-58
2022/04/29 00:16:05;;;;;;;6.13;3.42;;;9.60;53.10;;;;;;5093131;28;20043;-59
2022/04/29 00:18:31;;;;;;;5.18;2.90;;;9.60;53.20;;;;;;5109552;28;20043;-59
2022/04/29 00:20:58;;;;;;;3.80;2.97;;;9.60;53.50;;;;;;5101877;28;20031;-60
2022/04/29 00:23:23;;;;;;;3.35;2.80;;;9.50;53.50;;;;;;5104407;28;20032;-59
2022/04/29 00:25:49;;;;;;;4.72;2.72;;;9.40;53.50;;;;;;5102585;28;20028;-58
2022/04/29 00:28:15;;;;;;;4.82;2.85;;;9.40;53.50;;;;;;5112648;28;20090;-59
2022/04/29 00:30:41;;;;;;;3.70;2.80;;;9.40;53.50;;;;;;5092447;28;20035;-60
2022/04/29 00:33:06;;;;;;;4.55;2.72;;;9.40;53.50;;;;;;5094698;28;20036;-58
2022/04/29 00:35:32;;;;;;;3.75;2.75;;;9.30;53.60;;;;;;5103939;28;20036;-60
2022/04/29 00:37:58;;;;;;;3.83;2.75;;;9.30;53.70;;;;;;5107337;28;20044;-58
2022/04/29 00:40:26;;;;;;;4.28;2.88;;;9.30;53.80;;;;;;5109099;28;20091;-58
2022/04/29 00:42:52;;;;;;;4.32;2.85;;;9.20;53.90;;;;;;5103220;28;20478;-58
2022/04/29 00:45:19;;;;;;;3.42;2.75;;;9.20;53.80;;;;;;5099514;28;20028;-58
2022/04/29 00:47:47;;;;;;;5.63;2.95;;;9.20;53.90;;;;;;5105222;28;20055;-60
2022/04/29 00:50:15;;;;;;;2.95;2.45;;;9.10;54.00;;;;;;5094920;28;20041;-59
2022/04/29 00:52:45;;;;;;;6.97;2.90;;;9.10;54.00;;;;;;5105821;28;20055;-58
2022/04/29 00:55:12;;;;;;;6.38;2.65;;;9.10;54.30;;;;;;5099681;28;20035;-59
2022/04/29 00:57:58;;;;;;;3.38;2.75;;;9.00;54.20;;;;;;5112488;28;20051;-59
2022/04/29 01:00:24;;;;;;;3.97;3.00;;;9.00;55.20;;;;;;5083013;28;20040;-58
2022/04/29 01:02:53;;;;;;;4.47;3.20;;;9.00;54.20;;;;;;5104036;28;20016;-60
2022/04/29 01:05:22;;;;;;;5.18;3.05;;;8.90;54.50;;;;;;5096144;28;20025;-59
2022/04/29 01:07:49;;;;;;;3.50;2.72;;;8.90;54.60;;;;;;5106636;28;20016;-59
2022/04/29 01:10:16;;;;;;;3.30;2.80;;;8.90;54.40;;;;;;5103784;28;20024;-58
2022/04/29 01:12:43;;;;;;;4.22;2.85;;;8.80;54.50;;;;;;5103782;28;20024;-59
2022/04/29 01:15:15;;;;;;;5.25;3.28;;;8.80;54.50;;;;;;5105004;28;20531;-59
2022/04/29 01:17:43;;;;;;;5.10;3.20;;;8.80;55.60;;;;;;5099632;28;20028;-59
2022/04/29 01:20:12;;;;;;;5.65;3.20;;;8.70;54.70;;;;;;5106585;28;20038;-58
2022/04/29 01:22:37;;;;;;;4.57;3.30;;;8.70;54.70;;;;;;5103185;28;20045;-58
2022/04/29 01:25:04;;;;;;;4.07;3.17;;;8.70;54.60;;;;;;5113580;28;20024;-59
2022/04/29 01:27:30;;;;;;;6.88;3.42;;;8.60;54.60;;;;;;5108004;28;21048;-58
2022/04/29 01:30:00;;;;;;;7.68;2.83;;;8.60;54.60;;;;;;5102252;28;20036;-60
2022/04/29 01:32:26;;;;;;;3.22;2.92;;;8.60;54.70;;;;;;5099430;28;20039;-60
2022/04/29 01:34:52;;;;;;;5.43;3.30;;;8.60;54.70;;;;;;5106071;28;20025;-58
2022/04/29 01:37:18;;;;;;;3.45;2.75;;;8.50;54.70;;;;;;5098032;28;21681;-59
2022/04/29 01:39:44;;;;;;;3.72;2.95;;;8.50;54.70;;;;;;5106092;28;20021;-58
2022/04/29 01:42:09;;;;;;;5.55;3.00;;;8.50;54.90;;;;;;5109984;28;20479;-59
2022/04/29 01:44:35;;;;;;;4.75;3.15;;;8.50;54.90;;;;;;5105413;28;20463;-58
2022/04/29 01:47:00;;;;;;;3.95;3.53;;;8.40;54.70;;;;;;5105312;28;20032;-60
2022/04/29 01:49:27;;;;;;;5.60;3.42;;;8.40;54.70;;;;;;5098455;28;20048;-60
2022/04/29 01:51:54;;;;;;;3.50;3.20;;;8.30;54.80;;;;;;5101257;28;20024;-58
2022/04/29 01:54:19;;;;;;;6.82;3.58;;;8.40;54.90;;;;;;5101388;28;20023;-59
2022/04/29 01:56:47;;;;;;;5.22;3.13;;;8.30;55.10;;;;;;5107266;28;20134;-59
2022/04/29 01:59:13;;;;;;;6.45;2.95;;;8.30;55.20;;;;;;5093748;28;20040;-60
2022/04/29 02:01:39;;;;;;;5.20;3.15;;;8.30;55.30;;;;;;5088663;28;20040;-58
2022/04/29 02:04:05;;;;;;;5.78;3.40;;;8.20;55.40;;;;;;5101004;28;20101;-60
2022/04/29 02:06:31;;;;;;;4.32;3.33;;;8.20;55.60;;;;;;5105230;28;20033;-60
2022/04/29 02:08:56;;;;;;;5.70;3.08;;;8.20;55.50;;;;;;5101220;28;20052;-60
2022/04/29 02:11:23;;;;;;;4.90;2.97;;;8.20;55.60;;;;;;5100005;28;20031;-60
2022/04/29 02:13:49;;;;;;;5.68;3.17;;;8.10;55.60;;;;;;5104074;28;20363;-58
2022/04/29 02:16:14;;;;;;;3.53;3.15;;;8.10;55.80;;;;;;5111587;28;20051;-59
2022/04/29 02:18:41;;;;;;;6.20;3.40;;;8.10;55.80;;;;;;5097874;28;20024;-59
2022/04/29 02:21:07;;;;;;;10.63;3.22;;;8.00;55.70;;;;;;5098793;28;20024;-58
2022/04/29 02:23:33;;;;;;;5.65;2.90;;;8.00;55.70;;;;;;5097906;28;20033;-58
2022/04/29 02:25:59;;;;;;;7.38;3.25;;;8.00;55.70;;;;;;5097376;28;20030;-58
2022/04/29 02:28:27;;;;;;;4.32;3.10;;;8.00;55.70;;;;;;5102886;28;20031;-59
2022/04/29 02:30:56;;;;;;;5.00;3.15;;;7.90;55.80;;;;;;5100449;28;20332;-59
2022/04/29 02:33:22;;;;;;;5.07;2.97;;;7.90;55.90;;;;;;5103684;28;20069;-58
2022/04/29 02:35:48;;;;;;;6.82;2.88;;;7.90;55.90;;;;;;5100459;28;20036;-59
2022/04/29 02:38:14;;;;;;;5.43;3.47;;;7.80;55.90;;;;;;5105000;28;20054;-59
2022/04/29 02:40:39;;;;;;;11.10;3.50;;;7.80;56.10;;;;;;5098038;28;20036;-58
2022/04/29 02:43:05;;;;;;;5.28;3.30;;;7.80;56.10;;;;;;5106964;28;20020;-59
2022/04/29 02:45:32;;;;;;;3.70;3.15;;;7.80;56.00;;;;;;5104853;28;20032;-60
2022/04/29 02:47:58;;;;;;;4.47;3.10;;;7.80;56.30;;;;;;5096390;28;20032;-59
2022/04/29 02:50:24;;;;;;;7.70;3.50;;;7.70;56.30;;;;;;5109338;28;20216;-58
2022/04/29 02:52:50;;;;;;;5.47;3.45;;;7.70;56.50;;;;;;5106727;28;20025;-59
2022/04/29 02:55:15;;;;;;;7.03;3.88;;;7.70;56.40;;;;;;5100860;28;20036;-60
2022/04/29 02:57:41;;;;;;;6.30;3.63;;;7.60;56.50;;;;;;5102898;28;20131;-58
2022/04/29 03:00:07;;;;;;;4.05;3.42;;;7.60;56.50;;;;;;5106354;28;20170;-60
2022/04/29 03:02:33;;;;;;;6.65;3.25;;;7.60;56.80;;;;;;5102935;28;20035;-59
2022/04/29 03:04:59;;;;;;;6.40;3.10;;;7.60;56.90;;;;;;5103747;28;20024;-59
2022/04/29 03:07:24;;;;;;;5.32;3.40;;;7.60;57.50;;;;;;5105820;28;20028;-58
2022/04/29 03:09:50;;;;;;;4.85;3.40;;;7.50;57.00;;;;;;5099290;28;20035;-58
2022/04/29 03:12:16;;;;;;;4.80;3.38;;;7.50;57.10;;;;;;5108242;28;20027;-60
2022/04/29 03:14:42;;;;;;;7.50;3.55;;;7.50;57.10;;;;;;5100522;28;20020;-59
2022/04/29 03:18:17;;;;;;;4.80;3.47;;;7.50;57.10;;;;;;5104098;28;20043;-59
2022/04/29 03:19:58;;;;;;;5.07;3.30;;;7.50;57.00;;;;;;5097864;28;20043;-60
2022/04/29 03:22:23;;;;;;;5.20;3.88;;;7.50;56.80;;;;;;5096481;28;20039;-60
2022/04/29 03:24:49;;;;;;;8.60;3.75;;;7.40;56.90;;;;;;5104200;28;20085;-58
2022/04/29 03:27:14;;;;;;;4.88;3.45;;;7.40;56.90;;;;;;5104609;28;20032;-59
2022/04/29 03:29:40;;;;;;;4.38;3.55;;;7.40;56.80;;;;;;5096743;28;20020;-58
2022/04/29 03:32:06;;;;;;;4.75;3.38;;;7.30;56.80;;;;;;5104691;28;20040;-58
2022/04/29 03:34:32;;;;;;;7.32;3.53;;;7.30;56.80;;;;;;5101743;28;20478;-58
2022/04/29 03:36:58;;;;;;;5.93;3.05;;;7.30;56.90;;;;;;5103283;28;20046;-59
2022/04/29 03:39:23;;;;;;;8.13;3.25;;;7.30;56.80;;;;;;5103148;28;20085;-60
2022/04/29 03:41:49;;;;;;;11.05;3.70;;;7.30;57.00;;;;;;5097220;28;20375;-60
2022/04/29 03:44:14;;;;;;;5.45;3.55;;;7.20;56.90;;;;;;5093503;28;20491;-60
2022/04/29 03:46:40;;;;;;;5.82;3.58;;;7.20;57.00;;;;;;5092267;28;20024;-58
2022/04/29 03:51:50;;;;;;;5.13;3.40;;;7.20;57.40;;;;;;5096445;28;20463;-58
2022/04/29 03:54:15;;;;;;;4.82;3.70;;;7.20;57.10;;;;;;5099479;28;20032;-59
2022/04/29 03:56:41;;;;;;;8.95;3.38;;;7.10;57.30;;;;;;5094938;28;20037;-58
2022/04/29 03:59:06;;;;;;;4.97;3.20;;;7.10;57.50;;;;;;5100075;28;20016;-58
2022/04/29 04:01:33;;;;;;;8.57;3.67;;;7.10;57.60;;;;;;5103555;28;20027;-59
2022/04/29 04:03:59;;;;;;;5.57;3.47;;;7.10;58.30;;;;;;5098197;28;20102;-58
2022/04/29 04:09:09;;;;;;;7.05;3.75;;;7.00;57.80;;;;;;5093415;28;20039;-58
2022/04/29 04:11:37;;;;;;;5.63;3.60;;;7.00;57.70;;;;;;5099406;28;20035;-60
2022/04/29 04:14:02;;;;;;;8.52;3.65;;;7.00;57.70;;;;;;5094813;28;20052;-58
2022/04/29 04:16:28;;;;;;;4.78;3.67;;;7.00;57.70;;;;;;5100535;28;20047;-59
2022/04/29 04:18:54;;;;;;;6.55;4.03;;;7.00;57.70;;;;;;5106171;28;20021;-58
2022/04/29 04:21:19;;;;;;;6.40;3.65;;;7.00;57.90;;;;;;5102837;28;20041;-58
2022/04/29 04:23:45;;;;;;;8.52;3.90;;;7.00;57.90;;;;;;5104758;28;20024;-58
2022/04/29 04:26:11;;;;;;;5.00;3.80;;;7.00;57.80;;;;;;5100208;28;20119;-58
2022/04/29 04:28:36;;;;;;;6.95;3.20;;;7.00;57.90;;;;;;5101898;28;20046;-59
2022/04/29 04:31:02;;;;;;;4.97;3.80;;;7.00;58.00;;;;;;5095733;28;20036;-59
2022/04/29 04:33:28;;;;;;;7.85;3.63;;;7.00;58.00;;;;;;5102753;28;20024;-58
2022/04/29 04:35:53;;;;;;;4.43;3.15;;;7.00;58.00;;;;;;5100754;28;20036;-59
2022/04/29 04:38:19;;;;;;;5.43;3.85;;;7.10;58.00;;;;;;5100814;28;20024;-59
2022/04/29 04:40:44;;;;;;;8.07;3.80;;;7.00;58.10;;;;;;5104905;28;20024;-58
2022/04/29 04:43:10;;;;;;;5.78;4.38;;;7.00;58.10;;;;;;5102815;28;20066;-58
2022/04/29 04:45:36;;;;;;;6.22;3.95;;;7.10;58.20;;;;;;5097206;28;20077;-58
2022/04/29 04:48:02;;;;;;;8.60;3.85;;;7.10;58.30;;;;;;5094804;28;20036;-58
2022/04/29 04:50:27;;;;;;;4.90;3.78;;;7.20;58.50;;;;;;5097791;28;20443;-58
2022/04/29 04:52:53;;;;;;;5.22;3.53;;;7.20;58.30;;;;;;5103146;28;20034;-58
2022/04/29 04:55:18;;;;;;;4.50;3.50;;;7.30;58.30;;;;;;5097414;28;20032;-58
2022/04/29 04:57:44;;;;;;;4.80;4.00;;;7.30;58.30;;;;;;5097458;28;20051;-60
2022/04/29 05:00:10;;;;;;;9.18;4.15;;;7.40;58.40;;;;;;5101841;28;20051;-60
2022/04/29 05:02:40;;;;;;;5.55;3.88;;;7.50;58.20;;;;;;5103496;28;20509;-60
2022/04/29 05:05:06;;;;;;;11.57;3.90;;;7.60;58.40;;;;;;5100114;28;20028;-59
2022/04/29 05:07:32;;;;;;;8.23;4.00;;;7.60;58.40;;;;;;5103324;28;20134;-59
2022/04/29 05:09:57;;;;;;;4.75;3.83;;;7.70;58.50;;;;;;5097799;28;20024;-60
2022/04/29 05:12:23;;;;;;;9.07;3.92;;;7.80;58.60;;;;;;5095869;28;20033;-58
2022/04/29 05:14:49;;;;;;;9.55;3.95;;;7.90;58.70;;;;;;5114145;28;20039;-58
2022/04/29 05:17:14;;;;;;;7.30;3.88;;;8.00;58.70;;;;;;5096826;28;20039;-59
2022/04/29 05:19:40;;;;;;;6.53;3.78;;;8.10;58.60;;;;;;5091324;28;20029;-58
2022/04/29 05:22:06;;;;;;;5.80;3.83;;;8.20;58.40;;;;;;5102301;28;20028;-58
2022/04/29 05:24:31;;;;;;;8.00;4.13;;;8.40;58.50;;;;;;5101216;28;20047;-58
2022/04/29 05:26:57;;;;;;;5.80;3.85;;;8.50;58.70;;;;;;5132337;27;20024;-59
2022/04/29 05:29:22;;;;;;;6.28;4.05;;;8.60;58.70;;;;;;5114363;28;20125;-60
2022/04/29 05:31:48;;;;;;;16.45;4.82;;;8.70;58.60;;;;;;5106302;28;20044;-58
2022/04/29 05:34:15;;;;;;;7.28;4.32;;;8.90;58.40;;;;;;5103874;28;20063;-59
2022/04/29 05:36:41;;;;;;;33.63;4.05;;;9.00;58.40;;;;;;5105268;28;20028;-57
2022/04/29 05:44:36;;;;;;;10.23;4.03;;;9.50;58.00;;;;;;5102570;28;20104;-60
2022/04/29 05:47:02;;;;;;;22.00;4.28;;;9.70;57.80;;;;;;5098447;28;20028;-59
2022/04/29 05:49:28;;;;;;;12.55;4.13;;;9.80;57.60;;;;;;5106395;28;20045;-58
2022/04/29 05:51:53;;;;;;;8.95;4.10;;;10.00;57.50;;;;;;5107528;28;20024;-60
2022/04/29 05:54:19;;;;;;;9.15;4.90;;;10.10;57.30;;;;;;5099777;28;20024;-59
2022/04/29 05:56:45;;;;;;;5.80;3.78;;;10.30;57.20;;;;;;5108447;28;20523;-59
2022/04/29 05:59:10;;;;;;;6.78;4.20;;;10.40;57.10;;;;;;5094812;28;20350;-59
2022/04/29 06:01:36;;;;;;;9.68;4.07;;;10.60;57.60;;;;;;5104036;28;20023;-59
2022/04/29 06:04:01;;;;;;;5.72;3.78;;;10.80;56.80;;;;;;5111380;28;20028;-58
2022/04/29 06:06:27;;;;;;;7.10;3.70;;;10.90;56.70;;;;;;5101533;28;20038;-59
2022/04/29 06:08:52;;;;;;;6.28;4.10;;;11.10;56.60;;;;;;5099252;28;20062;-59
2022/04/29 06:11:18;;;;;;;8.50;4.43;;;11.30;56.60;;;;;;5095281;28;20025;-60
2022/04/29 06:13:44;;;;;;;10.93;4.18;;;11.40;56.40;;;;;;5105895;28;20036;-60
2022/04/29 06:16:10;;;;;;;10.77;3.58;;;11.60;56.10;;;;;;5105518;28;20413;-60
2022/04/29 06:18:36;;;;;;;7.38;4.07;;;11.80;55.80;;;;;;5104678;28;20024;-61
2022/04/29 06:21:02;;;;;;;12.60;4.45;;;11.90;55.60;;;;;;5102819;28;20111;-61
2022/04/29 06:23:28;;;;;;;8.63;4.38;;;12.10;55.70;;;;;;5098588;28;20043;-59
2022/04/29 06:25:54;;;;;;;13.38;4.88;;;12.30;55.60;;;;;;5097633;28;20047;-59
2022/04/29 06:28:20;;;;;;;6.05;4.07;;;12.40;55.20;;;;;;5106014;28;20057;-61
2022/04/29 06:30:45;;;;;;;11.77;4.32;;;12.50;55.20;;;;;;5102502;28;20711;-60
2022/04/29 06:33:11;;;;;;;14.55;4.82;;;12.70;55.10;;;;;;5104199;28;20023;-59
2022/04/29 06:35:43;;;;;;;13.82;5.10;;;12.90;55.00;;;;;;5101232;28;20040;-60
2022/04/29 06:38:12;;;;;;;8.32;4.47;;;13.10;54.90;;;;;;5104478;28;20023;-59
2022/04/29 06:40:37;;;;;;;7.78;4.80;;;13.20;54.80;;;;;;5091641;28;20032;-60
2022/04/29 06:43:03;;;;;;;16.38;4.72;;;13.40;54.70;;;;;;5093285;28;20681;-59
2022/04/29 06:45:29;;;;;;;5.80;4.43;;;13.60;54.80;;;;;;5101406;28;20035;-60
2022/04/29 06:47:54;;;;;;;10.35;4.93;;;13.80;54.70;;;;;;5090060;28;20035;-59
2022/04/29 06:50:20;;;;;;;7.72;4.68;;;14.00;54.40;;;;;;5094668;28;20064;-59
2022/04/29 06:52:45;;;;;;;12.07;5.53;;;14.20;53.90;;;;;;5097942;28;20037;-59
2022/04/29 06:55:11;;;;;;;10.48;5.13;;;14.40;53.50;;;;;;5099011;28;20040;-62
2022/04/29 06:57:37;;;;;;;10.70;5.38;;;14.50;53.10;;;;;;5105362;28;20020;-59
2022/04/29 07:00:04;;;;;;;10.48;5.95;;;14.70;52.80;;;;;;5104029;28;20221;-59
2022/04/29 07:02:31;;;;;;;10.50;5.78;;;14.70;52.10;;;;;;5105053;28;20024;-61
2022/04/29 07:04:57;;;;;;;11.45;6.00;;;14.80;51.90;;;;;;5105569;28;20028;-59
2022/04/29 07:07:24;;;;;;;14.00;5.95;;;14.80;51.90;;;;;;5096233;28;20078;-60
2022/04/29 07:09:50;;;;;;;11.43;5.70;;;15.00;52.00;;;;;;5098271;28;20029;-61
2022/04/29 07:12:16;;;;;;;9.98;6.50;;;15.00;52.00;;;;;;5109170;28;20023;-60
2022/04/29 07:14:42;;;;;;;12.20;6.38;;;15.10;51.90;;;;;;5101313;28;20046;-60
2022/04/29 07:17:08;;;;;;;11.63;7.00;;;15.30;51.70;;;;;;5100987;28;20037;-60
2022/04/29 07:19:37;;;;;;;13.27;6.88;;;15.50;51.50;;;;;;5103589;28;20035;-59
2022/04/29 07:22:03;;;;;;;13.77;7.25;;;15.60;51.30;;;;;;5101891;28;20106;-59
2022/04/29 07:24:29;;;;;;;16.20;6.78;;;15.70;51.00;;;;;;5094824;28;20032;-59
2022/04/29 07:26:56;;;;;;;15.07;7.97;;;15.80;50.80;;;;;;5090143;28;20391;-60
2022/04/29 07:29:22;;;;;;;11.52;6.95;;;16.00;50.80;;;;;;5088972;28;20086;-60
2022/04/29 07:31:48;;;;;;;12.40;7.40;;;16.10;50.30;;;;;;5103375;28;20024;-60
2022/04/29 07:34:14;;;;;;;12.23;6.63;;;16.20;49.90;;;;;;5095669;28;20028;-60
2022/04/29 07:42:08;;;;;;;10.35;5.47;;;16.50;49.40;;;;;;5091107;28;20036;-60
2022/04/29 07:44:34;;;;;;;8.52;5.30;;;16.60;49.20;;;;;;5092804;28;20028;-61
2022/04/29 07:47:00;;;;;;;10.88;5.57;;;16.80;49.20;;;;;;5105827;28;20039;-61
2022/04/29 07:49:26;;;;;;;10.48;5.60;;;16.90;48.80;;;;;;5104064;28;20047;-60
2022/04/29 07:51:51;;;;;;;9.40;5.05;;;17.10;48.80;;;;;;5104062;28;20118;-60
2022/04/29 07:54:17;;;;;;;9.35;4.47;;;17.20;48.60;;;;;;5103688;28;20021;-60
2022/04/29 07:56:43;;;;;;;10.90;5.18;;;17.40;48.30;;;;;;5105281;28;20057;-60
2022/04/29 07:59:09;;;;;;;8.20;4.57;;;17.60;48.00;;;;;;5097621;28;20035;-60
2022/04/29 08:01:40;;;;;;;7.65;4.38;;;17.80;48.10;;;;;;5110633;28;20020;-60
2022/04/29 08:04:06;;;;;;;8.30;4.18;;;18.00;47.70;;;;;;5104467;28;20040;-61
2022/04/29 08:06:32;;;;;;;8.25;4.85;;;18.20;47.60;;;;;;5101137;28;20486;-60
2022/04/29 08:08:57;;;;;;;6.80;4.32;;;18.40;47.10;;;;;;5110717;28;20289;-60
2022/04/29 08:11:24;;;;;;;5.18;3.70;;;18.60;46.50;;;;;;5093312;28;20028;-60
2022/04/29 08:13:50;;;;;;;6.30;4.30;;;18.70;46.00;;;;;;5103753;28;20069;-60
2022/04/29 08:16:15;;;;;;;5.60;4.20;;;18.90;45.80;;;;;;5102468;28;20119;-62
2022/04/29 08:18:42;;;;;;;5.45;4.00;;;19.00;45.20;;;;;;5098600;28;20020;-60
2022/04/29 08:21:08;;;;;;;5.03;4.03;;;19.20;44.80;;;;;;5099950;28;20025;-60
2022/04/29 08:23:34;;;;;;;5.70;3.75;;;19.30;44.50;;;;;;5099630;28;20020;-61
2022/04/29 08:26:00;;;;;;;6.10;4.15;;;19.40;44.10;;;;;;5098871;28;20053;-60
2022/04/29 08:28:28;;;;;;;6.25;4.13;;;19.50;44.00;;;;;;5100196;28;20087;-60
2022/04/29 08:30:53;;;;;;;5.18;4.50;;;19.70;44.50;;;;;;5097105;28;20078;-60
2022/04/29 08:33:21;;;;;;;6.55;4.22;;;19.70;44.00;;;;;;5105900;28;20081;-60
2022/04/29 08:35:47;;;;;;;5.50;4.00;;;19.80;43.80;;;;;;5104356;28;20039;-60
2022/04/29 08:38:13;;;;;;;6.03;4.07;;;19.90;43.30;;;;;;5100028;28;20036;-60
2022/04/29 08:40:45;;;;;;;6.43;3.70;;;20.00;43.40;;;;;;5104613;28;20024;-60
2022/04/29 08:43:12;;;;;;;5.93;4.15;;;20.10;42.40;;;;;;5109706;28;20020;-60
2022/04/29 08:45:38;;;;;;;6.95;4.10;;;20.20;42.80;;;;;;5103028;28;20028;-60
2022/04/29 08:48:05;;;;;;;7.15;3.92;;;20.30;42.40;;;;;;5105213;28;20058;-60
2022/04/29 08:50:33;;;;;;;7.40;4.13;;;20.40;42.20;;;;;;5106441;28;20086;-60
2022/04/29 08:53:00;;;;;;;9.82;5.57;;;20.50;41.70;;;;;;5108368;28;20028;-60
2022/04/29 09:01:21;;;;;;;6.85;3.58;;;20.60;40.60;;;;;;5111884;28;20106;-60
2022/04/29 09:03:47;;;;;;;5.00;3.20;;;20.60;39.70;;;;;;5096225;28;20054;-60
2022/04/29 09:06:17;;;;;;;6.03;3.25;;;20.50;40.30;;;;;;5113082;28;20030;-60
2022/04/29 09:08:45;;;;;;;5.38;3.42;;;20.60;40.00;;;;;;5106363;28;20031;-60
2022/04/29 09:11:19;;;;;;;4.85;3.10;;;20.50;39.90;;;;;;5107517;28;20083;-61
2022/04/29 09:13:45;;;;;;;5.38;3.10;;;20.50;39.60;;;;;;5108699;28;20602;-61
2022/04/29 09:16:12;;;;;;;7.55;3.58;;;20.50;39.70;;;;;;5105953;28;20036;-60
2022/04/29 09:18:46;;;;;;;11.65;6.20;;;20.50;40.00;;;;;;5101499;28;20020;-61
2022/04/29 09:21:13;;;;;;;7.35;4.00;;;20.60;38.90;;;;;;5102122;28;20028;-62
2022/04/29 09:23:47;;;;;;;15.38;5.97;;;20.70;39.70;;;;;;5108034;28;20584;-61
2022/04/29 09:26:35;;;;;;;11.13;3.95;;;20.90;39.20;;;;;;5101337;28;20043;-61
2022/04/29 09:29:21;;;;;;;6.93;3.45;;;21.10;39.30;;;;;;5101786;28;20108;-61
2022/04/29 09:32:01;;;;;;;6.53;3.47;;;21.30;38.10;;;;;;5104053;28;20090;-61
2022/04/29 09:34:53;;;;;;;6.10;3.25;;;21.40;38.40;;;;;;5100875;28;20474;-61
2022/04/29 09:37:24;;;;;;;3.78;2.97;;;21.50;38.20;;;;;;5102788;28;20051;-61
2022/04/29 09:39:53;;;;;;;3.67;2.70;;;21.60;37.80;;;;;;5108031;28;20471;-61
2022/04/29 09:42:19;;;;;;;3.90;3.28;;;21.70;37.10;;;;;;5102734;28;20023;-61
2022/04/29 09:44:45;;;;;;;4.65;3.13;;;21.70;37.50;;;;;;5100922;28;20050;-61
2022/04/29 09:47:16;;;;;;;4.10;3.50;;;21.70;37.70;;;;;;5110984;28;20031;-61
2022/04/29 09:49:53;;;;;;;5.45;2.88;;;21.80;37.50;;;;;;5099883;28;20047;-61
2022/04/29 09:52:20;;;;;;;4.95;2.83;;;21.80;36.00;;;;;;5108496;28;20021;-61
2022/04/29 09:54:45;;;;;;;3.92;2.72;;;21.90;36.60;;;;;;5103200;28;20092;-61
2022/04/29 09:57:13;;;;;;;7.35;3.20;;;21.90;36.70;;;;;;5107382;28;20308;-62
2022/04/29 09:59:44;;;;;;;9.23;3.63;;;21.90;36.50;;;;;;5099018;28;20033;-62
2022/04/29 10:02:12;;;;;;;3.90;3.50;;;21.80;35.50;;;;;;5109472;28;20020;-61
2022/04/29 10:04:45;;;;;;;4.55;3.35;;;21.80;36.40;;;;;;5092199;28;20016;-62
2022/04/29 10:07:18;;;;;;;4.75;3.53;;;21.70;35.80;;;;;;5094479;28;20026;-61
2022/04/29 10:09:48;;;;;;;4.53;3.20;;;21.60;36.00;;;;;;5085133;28;20094;-61
2022/04/29 10:12:19;;;;;;;4.72;3.72;;;21.50;35.70;;;;;;5078300;28;20470;-61
2022/04/29 10:14:47;;;;;;;4.32;3.65;;;21.40;35.90;;;;;;5079665;28;20032;-61
2022/04/29 10:22:53;;;;;;;7.55;4.10;;;21.10;36.50;;;;;;5086282;28;20070;-61
2022/04/29 10:25:20;;;;;;;5.45;3.58;;;21.00;36.70;;;;;;5086102;28;20043;-60
2022/04/29 10:27:49;;;;;;;6.28;3.55;;;21.00;37.50;;;;;;5100883;28;20027;-60
2022/04/29 10:30:17;;;;;;;7.50;3.92;;;21.00;37.20;;;;;;5098028;28;20088;-61
2022/04/29 10:33:02;;;;;;;5.75;4.28;;;21.10;37.90;;;;;;5104198;28;20116;-60
2022/04/29 10:35:40;;;;;;;4.60;4.13;;;21.10;37.30;;;;;;5094712;28;20040;-61
2022/04/29 10:38:21;;;;;;;5.70;3.88;;;21.20;37.90;;;;;;5112069;28;20107;-62
2022/04/29 10:41:07;;;;;;;7.32;4.50;;;21.30;38.50;;;;;;5092382;28;20455;-61
2022/04/29 10:43:38;;;;;;;10.93;4.10;;;21.50;38.50;;;;;;5098108;28;20012;-61
2022/04/29 10:46:03;;;;;;;7.57;4.10;;;21.70;38.20;;;;;;5105155;28;20051;-61
2022/04/29 10:48:34;;;;;;;6.30;3.70;;;21.80;37.70;;;;;;5107083;28;20031;-61
2022/04/29 10:51:20;;;;;;;4.95;3.55;;;21.90;37.20;;;;;;5097297;28;20039;-61
2022/04/29 10:53:50;;;;;;;7.47;3.28;;;22.10;37.10;;;;;;5088433;28;20027;-61
2022/04/29 10:56:34;;;;;;;8.25;3.17;;;22.20;37.70;;;;;;5095952;28;20064;-62
2022/04/29 10:59:15;;;;;;;3.53;2.88;;;22.30;35.60;;;;;;5106053;28;20087;-61
2022/04/29 11:01:49;;;;;;;5.00;3.08;;;22.50;35.70;;;;;;5093253;28;20024;-60
2022/04/29 11:04:17;;;;;;;5.30;2.97;;;22.60;35.60;;;;;;5104868;28;20020;-61
2022/04/29 11:06:48;;;;;;;4.25;3.33;;;22.60;35.40;;;;;;5102700;28;20028;-60
2022/04/29 11:09:28;;;;;;;6.30;3.65;;;22.70;34.10;;;;;;5096542;28;20032;-61
2022/04/29 11:11:54;;;;;;;5.03;3.22;;;22.70;32.80;;;;;;5103953;28;20810;-61
2022/04/29 11:14:20;;;;;;;9.65;3.05;;;22.70;34.50;;;;;;5100382;28;20031;-62
2022/04/29 11:16:52;;;;;;;4.25;3.33;;;22.70;33.80;;;;;;5092726;28;20111;-61
2022/04/29 11:19:34;;;;;;;4.30;2.97;;;22.80;33.90;;;;;;5092878;28;20454;-61
2022/04/29 11:24:52;;;;;;;7.72;3.47;;;22.90;34.10;;;;;;5105819;28;20027;-61
2022/04/29 11:27:30;;;;;;;7.13;3.45;;;23.00;34.00;;;;;;5092898;28;20024;-61
2022/04/29 11:30:01;;;;;;;5.20;3.20;;;23.00;33.60;;;;;;5094799;28;20104;-61
2022/04/29 11:32:27;;;;;;;5.65;4.10;;;23.00;33.90;;;;;;5101204;28;20024;-61
2022/04/29 11:34:53;;;;;;;4.85;3.83;;;23.00;33.80;;;;;;5101744;28;20027;-61
2022/04/29 11:37:28;;;;;;;4.68;3.45;;;22.90;33.30;;;;;;5105438;28;20032;-61
2022/04/29 11:39:55;;;;;;;5.32;3.30;;;22.90;33.00;;;;;;5096337;28;20026;-61
2022/04/29 11:42:21;;;;;;;5.13;3.50;;;22.90;34.00;;;;;;5102070;28;20024;-61
2022/04/29 11:44:49;;;;;;;4.72;3.70;;;22.90;34.20;;;;;;5092883;28;20032;-61
2022/04/29 11:47:16;;;;;;;5.00;3.60;;;22.90;34.20;;;;;;5093333;28;20027;-61
2022/04/29 11:49:43;;;;;;;3.70;3.15;;;22.90;34.10;;;;;;5103659;28;20732;-61
2022/04/29 11:52:26;;;;;;;5.43;3.72;;;22.90;34.30;;;;;;5110765;28;20092;-61
2022/04/29 11:54:57;;;;;;;7.18;3.40;;;22.90;32.20;;;;;;5102554;28;20035;-61
2022/04/29 11:57:27;;;;;;;4.57;3.65;;;22.90;33.70;;;;;;5108172;28;20043;-61
2022/04/29 11:59:54;;;;;;;4.88;3.53;;;22.90;33.50;;;;;;5111819;28;20028;-62
2022/04/29 12:02:22;;;;;;;6.93;4.05;;;22.90;33.60;;;;;;5099884;28;20020;-61
2022/04/29 12:04:57;;;;;;;4.38;3.67;;;22.90;33.50;;;;;;5099569;28;20079;-61
2022/04/29 12:07:24;;;;;;;5.18;3.72;;;22.90;33.80;;;;;;5100132;28;20039;-61
2022/04/29 12:09:51;;;;;;;6.32;4.22;;;22.90;34.00;;;;;;5108096;28;20016;-60
2022/04/29 12:12:30;;;;;;;6.28;3.42;;;23.00;34.10;;;;;;5100028;28;20083;-61
2022/04/29 12:14:58;;;;;;;9.23;4.35;;;23.00;34.20;;;;;;5101992;28;20035;-61
2022/04/29 12:17:35;;;;;;;9.10;3.40;;;23.10;34.10;;;;;;5098651;28;20050;-61
2022/04/29 12:20:02;;;;;;;7.53;3.60;;;23.20;33.70;;;;;;5104240;28;20028;-61
2022/04/29 12:22:33;;;;;;;10.25;3.67;;;23.30;34.50;;;;;;5097347;28;20028;-62
2022/04/29 12:25:25;;;;;;;6.80;3.17;;;23.50;34.10;;;;;;5094677;28;20055;-62
2022/04/29 12:28:22;;;;;;;5.05;3.88;;;23.60;34.20;;;;;;5086433;28;20054;-61
2022/04/29 12:36:57;;;;;;;7.07;3.55;;;24.10;32.80;;;;;;5094419;28;20048;-61
2022/04/29 12:39:40;;;;;;;4.82;3.55;;;24.20;32.30;;;;;;5108373;28;20035;-61
2022/04/29 12:42:09;;;;;;;4.72;3.33;;;24.30;32.50;;;;;;5098702;28;20025;-61
2022/04/29 12:45:04;;;;;;;5.20;3.50;;;24.30;33.20;;;;;;5103873;28;20049;-61
2022/04/29 12:47:38;;;;;;;4.78;4.03;;;24.40;31.40;;;;;;5107036;28;20020;-61
2022/04/29 12:50:29;;;;;;;6.13;3.40;;;24.40;30.60;;;;;;5097837;28;20444;-61
2022/04/29 12:53:06;;;;;;;5.93;3.63;;;24.40;29.90;;;;;;5089588;28;20147;-62
2022/04/29 12:55:46;;;;;;;4.40;3.20;;;24.40;30.50;;;;;;5107790;28;20033;-61
2022/04/29 12:58:27;;;;;;;4.18;3.15;;;24.30;31.20;;;;;;5101939;28;20498;-61
2022/04/29 13:01:03;;;;;;;5.53;3.28;;;24.40;31.00;;;;;;5106713;28;20047;-62
2022/04/29 13:03:31;;;;;;;8.20;3.95;;;24.40;31.60;;;;;;5098822;28;20037;-61
2022/04/29 13:06:01;;;;;;;5.50;4.10;;;24.50;31.50;;;;;;5103529;28;20054;-61
2022/04/29 13:08:28;;;;;;;5.55;3.40;;;24.60;31.70;;;;;;5099009;28;20024;-62
2022/04/29 13:10:58;;;;;;;7.07;4.88;;;24.70;31.50;;;;;;5108238;28;20035;-61
2022/04/29 13:13:26;;;;;;;8.05;3.22;;;24.70;30.90;;;;;;5104253;28;20040;-61
2022/04/29 13:15:52;;;;;;;8.60;4.75;;;24.80;30.90;;;;;;5099007;28;20100;-62
2022/04/29 13:18:19;;;;;;;5.50;4.03;;;24.90;30.70;;;;;;5110024;28;20106;-62
2022/04/29 13:20:46;;;;;;;9.57;4.57;;;24.90;30.50;;;;;;5115074;28;20020;-62
2022/04/29 13:23:12;;;;;;;5.35;3.70;;;25.00;30.00;;;;;;5104210;28;20036;-62
2022/04/29 13:25:39;;;;;;;5.63;3.60;;;25.00;29.80;;;;;;5107827;28;20026;-62
2022/04/29 13:28:06;;;;;;;10.98;4.38;;;25.00;30.20;;;;;;5107021;28;20031;-62
2022/04/29 13:30:32;;;;;;;7.75;3.10;;;25.00;29.90;;;;;;5091949;28;20028;-62
2022/04/29 13:32:58;;;;;;;4.55;3.30;;;25.00;29.90;;;;;;5109815;28;20088;-61